sensor_id;sensor_type;location;lat;lon;timestamp;P1;durP1;ratioP1;P2;durP2;ratioP2
8652;SDS011;4364;52.426;9.424;2023-07-31T00:01:35;6.40;;;5.07;;
8652;SDS011;4364;52.426;9.424;2023-07-31T00:04:02;7.80;;;5.17;;
8652;SDS011;4364;52.426;9.424;2023-07-31T00:06:29;7.43;;;4.83;;
8652;SDS011;4364;52.426;9.424;2023-07-31T00:08:56;9.07;;;5.70;;
8652;SDS011;4364;52.426;9.424;2023-07-31T00:11:22;6.70;;;4.87;;
8652;SDS011;4364;52.426;9.424;2023-07-31T00:13:49;7.60;;;5.50;;
8652;SDS011;4364;52.426;9.424;2023-07-31T00:16:15;6.10;;;5.07;;
8652;SDS011;4364;52.426;9.424;2023-07-31T00:18:42;10.53;;;5.47;;
8652;SDS011;4364;52.426;9.424;2023-07-31T00:21:08;8.90;;;5.30;;
8652;SDS011;4364;52.426;9.424;2023-07-31T00:23:35;9.33;;;6.00;;
8652;SDS011;4364;52.426;9.424;2023-07-31T00:26:02;7.83;;;6.03;;
8652;SDS011;4364;52.426;9.424;2023-07-31T00:28:28;9.17;;;5.83;;
8652;SDS011;4364;52.426;9.424;2023-07-31T00:30:55;9.60;;;6.50;;
8652;SDS011;4364;52.426;9.424;2023-07-31T00:33:24;8.93;;;5.93;;
8652;SDS011;4364;52.426;9.424;2023-07-31T00:35:51;9.37;;;6.17;;
8652;SDS011;4364;52.426;9.424;2023-07-31T00:38:18;6.63;;;5.10;;
8652;SDS011;4364;52.426;9.424;2023-07-31T00:40:44;8.90;;;6.20;;
8652;SDS011;4364;52.426;9.424;2023-07-31T00:43:11;7.83;;;6.03;;
8652;SDS011;4364;52.426;9.424;2023-07-31T00:45:37;11.13;;;6.40;;
8652;SDS011;4364;52.426;9.424;2023-07-31T00:48:04;7.40;;;5.60;;
8652;SDS011;4364;52.426;9.424;2023-07-31T00:50:33;7.03;;;6.00;;
8652;SDS011;4364;52.426;9.424;2023-07-31T00:53:01;10.30;;;6.40;;
8652;SDS011;4364;52.426;9.424;2023-07-31T00:55:28;9.23;;;6.10;;
8652;SDS011;4364;52.426;9.424;2023-07-31T00:57:55;9.73;;;6.10;;
8652;SDS011;4364;52.426;9.424;2023-07-31T01:00:22;8.00;;;5.57;;
8652;SDS011;4364;52.426;9.424;2023-07-31T01:02:49;6.30;;;5.13;;
8652;SDS011;4364;52.426;9.424;2023-07-31T01:05:19;6.80;;;5.43;;
8652;SDS011;4364;52.426;9.424;2023-07-31T01:07:56;6.67;;;5.60;;
8652;SDS011;4364;52.426;9.424;2023-07-31T01:10:46;6.10;;;4.77;;
8652;SDS011;4364;52.426;9.424;2023-07-31T01:13:17;5.60;;;4.80;;
8652;SDS011;4364;52.426;9.424;2023-07-31T01:15:45;6.70;;;4.80;;
8652;SDS011;4364;52.426;9.424;2023-07-31T01:18:11;7.13;;;5.17;;
8652;SDS011;4364;52.426;9.424;2023-07-31T01:20:38;8.47;;;3.90;;
8652;SDS011;4364;52.426;9.424;2023-07-31T01:31:18;5.17;;;3.83;;
8652;SDS011;4364;52.426;9.424;2023-07-31T01:33:47;4.20;;;3.60;;
8652;SDS011;4364;52.426;9.424;2023-07-31T01:36:15;4.03;;;3.40;;
8652;SDS011;4364;52.426;9.424;2023-07-31T01:38:42;4.07;;;3.47;;
8652;SDS011;4364;52.426;9.424;2023-07-31T01:41:09;7.73;;;3.33;;
8652;SDS011;4364;52.426;9.424;2023-07-31T01:43:36;6.97;;;3.60;;
8652;SDS011;4364;52.426;9.424;2023-07-31T01:46:04;5.13;;;3.23;;
8652;SDS011;4364;52.426;9.424;2023-07-31T01:48:30;4.57;;;2.93;;
8652;SDS011;4364;52.426;9.424;2023-07-31T01:51:02;4.23;;;2.40;;
8652;SDS011;4364;52.426;9.424;2023-07-31T01:53:32;5.07;;;2.63;;
8652;SDS011;4364;52.426;9.424;2023-07-31T01:55:58;3.83;;;2.33;;
8652;SDS011;4364;52.426;9.424;2023-07-31T01:58:25;2.43;;;2.10;;
8652;SDS011;4364;52.426;9.424;2023-07-31T02:00:51;3.93;;;2.23;;
8652;SDS011;4364;52.426;9.424;2023-07-31T02:03:18;4.10;;;2.40;;
8652;SDS011;4364;52.426;9.424;2023-07-31T02:05:45;2.63;;;2.00;;
8652;SDS011;4364;52.426;9.424;2023-07-31T02:08:13;3.30;;;1.80;;
8652;SDS011;4364;52.426;9.424;2023-07-31T02:10:40;4.07;;;1.90;;
8652;SDS011;4364;52.426;9.424;2023-07-31T02:13:06;3.37;;;1.83;;
8652;SDS011;4364;52.426;9.424;2023-07-31T02:15:34;2.80;;;1.90;;
8652;SDS011;4364;52.426;9.424;2023-07-31T02:18:01;1.90;;;1.60;;
8652;SDS011;4364;52.426;9.424;2023-07-31T02:20:27;2.77;;;1.90;;
8652;SDS011;4364;52.426;9.424;2023-07-31T02:22:54;2.83;;;1.73;;
8652;SDS011;4364;52.426;9.424;2023-07-31T02:25:20;3.73;;;1.90;;
8652;SDS011;4364;52.426;9.424;2023-07-31T02:27:47;1.90;;;1.80;;
8652;SDS011;4364;52.426;9.424;2023-07-31T02:30:14;2.53;;;2.00;;
8652;SDS011;4364;52.426;9.424;2023-07-31T02:32:41;2.27;;;1.87;;
8652;SDS011;4364;52.426;9.424;2023-07-31T02:35:07;3.97;;;1.90;;
8652;SDS011;4364;52.426;9.424;2023-07-31T02:37:34;2.43;;;2.13;;
8652;SDS011;4364;52.426;9.424;2023-07-31T02:40:00;2.37;;;2.17;;
8652;SDS011;4364;52.426;9.424;2023-07-31T02:42:28;2.77;;;2.00;;
8652;SDS011;4364;52.426;9.424;2023-07-31T02:44:54;2.73;;;2.37;;
8652;SDS011;4364;52.426;9.424;2023-07-31T02:47:22;3.37;;;2.30;;
8652;SDS011;4364;52.426;9.424;2023-07-31T02:49:49;3.13;;;2.37;;
8652;SDS011;4364;52.426;9.424;2023-07-31T02:52:16;3.70;;;2.30;;
8652;SDS011;4364;52.426;9.424;2023-07-31T02:54:42;5.57;;;2.30;;
8652;SDS011;4364;52.426;9.424;2023-07-31T02:57:09;5.20;;;2.60;;
8652;SDS011;4364;52.426;9.424;2023-07-31T02:59:36;4.33;;;2.63;;
8652;SDS011;4364;52.426;9.424;2023-07-31T03:02:03;2.93;;;2.63;;
8652;SDS011;4364;52.426;9.424;2023-07-31T03:04:29;3.77;;;2.90;;
8652;SDS011;4364;52.426;9.424;2023-07-31T03:06:56;3.63;;;3.00;;
8652;SDS011;4364;52.426;9.424;2023-07-31T03:09:22;3.67;;;3.00;;
8652;SDS011;4364;52.426;9.424;2023-07-31T03:11:49;3.17;;;2.60;;
8652;SDS011;4364;52.426;9.424;2023-07-31T03:14:15;3.03;;;2.73;;
8652;SDS011;4364;52.426;9.424;2023-07-31T03:16:43;5.93;;;3.00;;
8652;SDS011;4364;52.426;9.424;2023-07-31T03:19:10;4.77;;;3.07;;
8652;SDS011;4364;52.426;9.424;2023-07-31T03:21:36;4.40;;;3.07;;
8652;SDS011;4364;52.426;9.424;2023-07-31T03:24:03;3.30;;;2.67;;
8652;SDS011;4364;52.426;9.424;2023-07-31T03:26:31;3.30;;;3.00;;
8652;SDS011;4364;52.426;9.424;2023-07-31T03:28:58;3.20;;;2.90;;
8652;SDS011;4364;52.426;9.424;2023-07-31T03:31:25;3.10;;;2.80;;
8652;SDS011;4364;52.426;9.424;2023-07-31T03:33:52;2.93;;;2.60;;
8652;SDS011;4364;52.426;9.424;2023-07-31T03:36:19;3.97;;;3.17;;
8652;SDS011;4364;52.426;9.424;2023-07-31T03:38:46;3.50;;;3.10;;
8652;SDS011;4364;52.426;9.424;2023-07-31T03:41:12;4.00;;;3.20;;
8652;SDS011;4364;52.426;9.424;2023-07-31T03:43:39;4.17;;;3.53;;
8652;SDS011;4364;52.426;9.424;2023-07-31T03:46:06;3.30;;;2.87;;
8652;SDS011;4364;52.426;9.424;2023-07-31T03:48:33;4.13;;;2.97;;
8652;SDS011;4364;52.426;9.424;2023-07-31T03:50:59;4.07;;;2.53;;
8652;SDS011;4364;52.426;9.424;2023-07-31T03:53:26;3.20;;;2.60;;
8652;SDS011;4364;52.426;9.424;2023-07-31T03:55:52;3.40;;;2.50;;
8652;SDS011;4364;52.426;9.424;2023-07-31T03:58:19;5.20;;;2.97;;
8652;SDS011;4364;52.426;9.424;2023-07-31T04:00:45;3.27;;;2.60;;
8652;SDS011;4364;52.426;9.424;2023-07-31T04:03:13;3.57;;;2.70;;
8652;SDS011;4364;52.426;9.424;2023-07-31T04:05:39;3.37;;;2.67;;
8652;SDS011;4364;52.426;9.424;2023-07-31T04:08:06;3.60;;;2.50;;
8652;SDS011;4364;52.426;9.424;2023-07-31T04:10:33;3.07;;;2.60;;
8652;SDS011;4364;52.426;9.424;2023-07-31T04:13:00;3.10;;;2.73;;
8652;SDS011;4364;52.426;9.424;2023-07-31T04:15:26;4.33;;;2.17;;
8652;SDS011;4364;52.426;9.424;2023-07-31T04:17:53;2.77;;;2.27;;
8652;SDS011;4364;52.426;9.424;2023-07-31T04:20:20;3.07;;;2.50;;
8652;SDS011;4364;52.426;9.424;2023-07-31T04:22:46;5.67;;;2.50;;
8652;SDS011;4364;52.426;9.424;2023-07-31T04:25:13;2.70;;;2.43;;
8652;SDS011;4364;52.426;9.424;2023-07-31T04:27:39;3.10;;;1.90;;
8652;SDS011;4364;52.426;9.424;2023-07-31T04:30:06;2.70;;;2.10;;
8652;SDS011;4364;52.426;9.424;2023-07-31T04:32:34;3.50;;;2.10;;
8652;SDS011;4364;52.426;9.424;2023-07-31T04:35:02;2.13;;;1.70;;
8652;SDS011;4364;52.426;9.424;2023-07-31T04:37:29;2.33;;;1.80;;
8652;SDS011;4364;52.426;9.424;2023-07-31T04:39:55;3.37;;;1.80;;
8652;SDS011;4364;52.426;9.424;2023-07-31T04:42:22;2.80;;;1.63;;
8652;SDS011;4364;52.426;9.424;2023-07-31T04:44:49;1.67;;;1.43;;
8652;SDS011;4364;52.426;9.424;2023-07-31T04:47:16;3.67;;;1.60;;
8652;SDS011;4364;52.426;9.424;2023-07-31T04:49:42;3.40;;;1.60;;
8652;SDS011;4364;52.426;9.424;2023-07-31T04:52:09;2.80;;;1.60;;
8652;SDS011;4364;52.426;9.424;2023-07-31T04:54:35;2.00;;;1.50;;
8652;SDS011;4364;52.426;9.424;2023-07-31T04:57:02;4.07;;;1.43;;
8652;SDS011;4364;52.426;9.424;2023-07-31T04:59:28;2.67;;;1.40;;
8652;SDS011;4364;52.426;9.424;2023-07-31T05:01:55;1.47;;;1.37;;
8652;SDS011;4364;52.426;9.424;2023-07-31T05:04:22;1.30;;;1.20;;
8652;SDS011;4364;52.426;9.424;2023-07-31T05:06:49;2.77;;;1.40;;
8652;SDS011;4364;52.426;9.424;2023-07-31T05:09:15;3.00;;;1.43;;
8652;SDS011;4364;52.426;9.424;2023-07-31T05:11:42;2.00;;;1.80;;
8652;SDS011;4364;52.426;9.424;2023-07-31T05:14:09;3.33;;;2.00;;
8652;SDS011;4364;52.426;9.424;2023-07-31T05:16:36;3.23;;;2.10;;
8652;SDS011;4364;52.426;9.424;2023-07-31T05:19:03;3.13;;;2.27;;
8652;SDS011;4364;52.426;9.424;2023-07-31T05:21:29;5.33;;;2.33;;
8652;SDS011;4364;52.426;9.424;2023-07-31T05:23:56;3.27;;;2.77;;
8652;SDS011;4364;52.426;9.424;2023-07-31T05:26:22;3.80;;;3.23;;
8652;SDS011;4364;52.426;9.424;2023-07-31T05:28:49;5.53;;;3.70;;
8652;SDS011;4364;52.426;9.424;2023-07-31T05:31:16;6.23;;;4.73;;
8652;SDS011;4364;52.426;9.424;2023-07-31T05:33:42;8.83;;;5.03;;
8652;SDS011;4364;52.426;9.424;2023-07-31T05:36:08;7.60;;;5.27;;
8652;SDS011;4364;52.426;9.424;2023-07-31T05:38:35;9.80;;;5.60;;
8652;SDS011;4364;52.426;9.424;2023-07-31T05:41:02;10.67;;;6.33;;
8652;SDS011;4364;52.426;9.424;2023-07-31T05:43:28;11.13;;;6.63;;
8652;SDS011;4364;52.426;9.424;2023-07-31T05:45:55;14.60;;;8.33;;
8652;SDS011;4364;52.426;9.424;2023-07-31T05:48:21;12.40;;;7.90;;
8652;SDS011;4364;52.426;9.424;2023-07-31T05:50:48;11.10;;;7.87;;
8652;SDS011;4364;52.426;9.424;2023-07-31T05:53:14;16.00;;;8.63;;
8652;SDS011;4364;52.426;9.424;2023-07-31T05:55:41;13.93;;;9.53;;
8652;SDS011;4364;52.426;9.424;2023-07-31T05:58:07;13.07;;;9.33;;
8652;SDS011;4364;52.426;9.424;2023-07-31T06:00:34;14.60;;;10.37;;
8652;SDS011;4364;52.426;9.424;2023-07-31T06:03:01;15.20;;;10.57;;
8652;SDS011;4364;52.426;9.424;2023-07-31T06:05:27;17.63;;;11.37;;
8652;SDS011;4364;52.426;9.424;2023-07-31T06:07:56;16.70;;;11.23;;
8652;SDS011;4364;52.426;9.424;2023-07-31T06:10:23;16.47;;;11.47;;
8652;SDS011;4364;52.426;9.424;2023-07-31T06:12:50;16.17;;;11.07;;
8652;SDS011;4364;52.426;9.424;2023-07-31T06:15:16;14.73;;;10.40;;
8652;SDS011;4364;52.426;9.424;2023-07-31T06:17:45;14.90;;;10.77;;
8652;SDS011;4364;52.426;9.424;2023-07-31T06:20:12;15.63;;;11.10;;
8652;SDS011;4364;52.426;9.424;2023-07-31T06:22:38;14.53;;;10.80;;
8652;SDS011;4364;52.426;9.424;2023-07-31T06:25:05;15.67;;;11.07;;
8652;SDS011;4364;52.426;9.424;2023-07-31T06:27:32;18.67;;;10.67;;
8652;SDS011;4364;52.426;9.424;2023-07-31T06:29:58;19.87;;;11.30;;
8652;SDS011;4364;52.426;9.424;2023-07-31T06:32:26;20.13;;;12.03;;
8652;SDS011;4364;52.426;9.424;2023-07-31T06:34:53;18.27;;;11.17;;
8652;SDS011;4364;52.426;9.424;2023-07-31T06:37:20;19.47;;;11.27;;
8652;SDS011;4364;52.426;9.424;2023-07-31T06:39:46;17.93;;;11.80;;
8652;SDS011;4364;52.426;9.424;2023-07-31T06:42:13;19.43;;;11.53;;
8652;SDS011;4364;52.426;9.424;2023-07-31T06:44:39;16.43;;;10.83;;
8652;SDS011;4364;52.426;9.424;2023-07-31T06:47:06;18.73;;;12.00;;
8652;SDS011;4364;52.426;9.424;2023-07-31T06:49:33;18.87;;;11.30;;
8652;SDS011;4364;52.426;9.424;2023-07-31T06:51:59;19.20;;;12.10;;
8652;SDS011;4364;52.426;9.424;2023-07-31T06:54:28;19.60;;;11.40;;
8652;SDS011;4364;52.426;9.424;2023-07-31T06:56:55;22.00;;;12.20;;
8652;SDS011;4364;52.426;9.424;2023-07-31T06:59:21;22.40;;;11.47;;
8652;SDS011;4364;52.426;9.424;2023-07-31T07:01:47;17.17;;;11.80;;
8652;SDS011;4364;52.426;9.424;2023-07-31T07:04:14;17.50;;;11.80;;
8652;SDS011;4364;52.426;9.424;2023-07-31T07:06:41;18.57;;;11.23;;
8652;SDS011;4364;52.426;9.424;2023-07-31T07:09:08;18.17;;;12.30;;
8652;SDS011;4364;52.426;9.424;2023-07-31T07:11:35;18.57;;;11.50;;
8652;SDS011;4364;52.426;9.424;2023-07-31T07:14:03;19.47;;;11.70;;
8652;SDS011;4364;52.426;9.424;2023-07-31T07:16:30;20.07;;;11.10;;
8652;SDS011;4364;52.426;9.424;2023-07-31T07:18:56;24.20;;;11.60;;
8652;SDS011;4364;52.426;9.424;2023-07-31T07:21:30;22.83;;;11.87;;
8652;SDS011;4364;52.426;9.424;2023-07-31T07:23:57;19.30;;;11.77;;
8652;SDS011;4364;52.426;9.424;2023-07-31T07:26:23;18.20;;;10.67;;
8652;SDS011;4364;52.426;9.424;2023-07-31T07:28:50;20.40;;;10.60;;
8652;SDS011;4364;52.426;9.424;2023-07-31T07:31:16;21.33;;;10.70;;
8652;SDS011;4364;52.426;9.424;2023-07-31T07:33:43;21.47;;;11.13;;
8652;SDS011;4364;52.426;9.424;2023-07-31T07:36:09;16.90;;;10.40;;
8652;SDS011;4364;52.426;9.424;2023-07-31T07:38:36;16.37;;;10.10;;
8652;SDS011;4364;52.426;9.424;2023-07-31T07:41:04;22.00;;;11.50;;
8652;SDS011;4364;52.426;9.424;2023-07-31T07:43:31;15.57;;;10.33;;
8652;SDS011;4364;52.426;9.424;2023-07-31T07:45:57;19.47;;;11.00;;
8652;SDS011;4364;52.426;9.424;2023-07-31T07:48:24;19.97;;;10.50;;
8652;SDS011;4364;52.426;9.424;2023-07-31T07:50:51;17.77;;;10.50;;
8652;SDS011;4364;52.426;9.424;2023-07-31T07:53:18;18.50;;;10.30;;
8652;SDS011;4364;52.426;9.424;2023-07-31T07:55:44;18.33;;;10.23;;
8652;SDS011;4364;52.426;9.424;2023-07-31T07:58:10;18.73;;;10.00;;
8652;SDS011;4364;52.426;9.424;2023-07-31T08:00:38;13.83;;;9.17;;
8652;SDS011;4364;52.426;9.424;2023-07-31T08:03:04;17.63;;;9.80;;
8652;SDS011;4364;52.426;9.424;2023-07-31T08:05:32;17.53;;;9.50;;
8652;SDS011;4364;52.426;9.424;2023-07-31T08:08:00;14.13;;;8.63;;
8652;SDS011;4364;52.426;9.424;2023-07-31T08:10:27;19.83;;;9.23;;
8652;SDS011;4364;52.426;9.424;2023-07-31T08:12:53;18.70;;;8.70;;
8652;SDS011;4364;52.426;9.424;2023-07-31T08:15:20;19.27;;;8.50;;
8652;SDS011;4364;52.426;9.424;2023-07-31T08:17:46;13.83;;;7.50;;
8652;SDS011;4364;52.426;9.424;2023-07-31T08:20:13;18.43;;;8.70;;
8652;SDS011;4364;52.426;9.424;2023-07-31T08:22:40;14.20;;;7.70;;
8652;SDS011;4364;52.426;9.424;2023-07-31T08:25:07;15.20;;;8.30;;
8652;SDS011;4364;52.426;9.424;2023-07-31T08:27:34;17.87;;;8.90;;
8652;SDS011;4364;52.426;9.424;2023-07-31T08:30:00;14.80;;;8.20;;
8652;SDS011;4364;52.426;9.424;2023-07-31T08:32:27;13.50;;;6.93;;
8652;SDS011;4364;52.426;9.424;2023-07-31T08:34:53;12.77;;;6.87;;
8652;SDS011;4364;52.426;9.424;2023-07-31T08:37:20;17.77;;;7.63;;
8652;SDS011;4364;52.426;9.424;2023-07-31T08:39:46;13.43;;;7.73;;
8652;SDS011;4364;52.426;9.424;2023-07-31T08:42:13;14.87;;;7.20;;
8652;SDS011;4364;52.426;9.424;2023-07-31T08:44:39;14.80;;;7.50;;
8652;SDS011;4364;52.426;9.424;2023-07-31T08:47:07;13.77;;;6.87;;
8652;SDS011;4364;52.426;9.424;2023-07-31T08:49:34;12.27;;;6.87;;
8652;SDS011;4364;52.426;9.424;2023-07-31T08:52:01;14.30;;;6.97;;
8652;SDS011;4364;52.426;9.424;2023-07-31T08:54:29;16.77;;;7.93;;
8652;SDS011;4364;52.426;9.424;2023-07-31T08:56:59;17.87;;;7.17;;
8652;SDS011;4364;52.426;9.424;2023-07-31T08:59:28;12.83;;;6.60;;
8652;SDS011;4364;52.426;9.424;2023-07-31T09:01:57;12.23;;;7.03;;
8652;SDS011;4364;52.426;9.424;2023-07-31T09:04:29;14.63;;;7.10;;
8652;SDS011;4364;52.426;9.424;2023-07-31T09:06:57;12.03;;;7.40;;
8652;SDS011;4364;52.426;9.424;2023-07-31T09:09:27;11.10;;;7.20;;
8652;SDS011;4364;52.426;9.424;2023-07-31T09:11:53;12.23;;;7.03;;
8652;SDS011;4364;52.426;9.424;2023-07-31T09:14:21;11.83;;;7.00;;
8652;SDS011;4364;52.426;9.424;2023-07-31T09:16:51;9.03;;;6.80;;
8652;SDS011;4364;52.426;9.424;2023-07-31T09:19:34;10.27;;;6.97;;
8652;SDS011;4364;52.426;9.424;2023-07-31T09:22:05;9.83;;;6.50;;
8652;SDS011;4364;52.426;9.424;2023-07-31T09:24:32;9.67;;;6.33;;
8652;SDS011;4364;52.426;9.424;2023-07-31T09:27:00;9.73;;;6.37;;
8652;SDS011;4364;52.426;9.424;2023-07-31T09:29:27;9.07;;;6.03;;
8652;SDS011;4364;52.426;9.424;2023-07-31T09:31:56;8.67;;;5.87;;
8652;SDS011;4364;52.426;9.424;2023-07-31T09:34:28;9.50;;;6.13;;
8652;SDS011;4364;52.426;9.424;2023-07-31T09:37:04;9.03;;;6.17;;
8652;SDS011;4364;52.426;9.424;2023-07-31T09:39:31;9.43;;;5.63;;
8652;SDS011;4364;52.426;9.424;2023-07-31T09:41:57;5.47;;;4.77;;
8652;SDS011;4364;52.426;9.424;2023-07-31T09:44:37;7.13;;;5.27;;
8652;SDS011;4364;52.426;9.424;2023-07-31T09:47:05;5.47;;;4.33;;
8652;SDS011;4364;52.426;9.424;2023-07-31T09:49:32;4.77;;;4.23;;
8652;SDS011;4364;52.426;9.424;2023-07-31T09:51:58;5.87;;;4.13;;
8652;SDS011;4364;52.426;9.424;2023-07-31T09:54:25;6.20;;;4.30;;
8652;SDS011;4364;52.426;9.424;2023-07-31T09:56:51;5.90;;;4.60;;
8652;SDS011;4364;52.426;9.424;2023-07-31T09:59:19;4.87;;;4.00;;
8652;SDS011;4364;52.426;9.424;2023-07-31T10:01:49;4.67;;;4.10;;
8652;SDS011;4364;52.426;9.424;2023-07-31T10:04:18;6.17;;;3.90;;
8652;SDS011;4364;52.426;9.424;2023-07-31T10:06:52;3.90;;;3.50;;
8652;SDS011;4364;52.426;9.424;2023-07-31T10:09:19;4.03;;;3.00;;
8652;SDS011;4364;52.426;9.424;2023-07-31T10:11:56;4.47;;;3.27;;
8652;SDS011;4364;52.426;9.424;2023-07-31T10:14:26;4.03;;;3.30;;
8652;SDS011;4364;52.426;9.424;2023-07-31T10:16:55;5.33;;;3.43;;
8652;SDS011;4364;52.426;9.424;2023-07-31T10:19:23;3.80;;;3.27;;
8652;SDS011;4364;52.426;9.424;2023-07-31T10:21:50;5.30;;;3.00;;
8652;SDS011;4364;52.426;9.424;2023-07-31T10:24:17;3.53;;;3.23;;
8652;SDS011;4364;52.426;9.424;2023-07-31T10:26:45;4.40;;;3.27;;
8652;SDS011;4364;52.426;9.424;2023-07-31T10:29:13;4.40;;;3.10;;
8652;SDS011;4364;52.426;9.424;2023-07-31T10:31:41;3.90;;;2.70;;
8652;SDS011;4364;52.426;9.424;2023-07-31T10:34:08;3.83;;;3.00;;
8652;SDS011;4364;52.426;9.424;2023-07-31T10:36:36;4.00;;;2.67;;
8652;SDS011;4364;52.426;9.424;2023-07-31T10:39:03;3.07;;;2.57;;
8652;SDS011;4364;52.426;9.424;2023-07-31T10:41:30;4.20;;;2.60;;
8652;SDS011;4364;52.426;9.424;2023-07-31T10:43:59;2.90;;;2.60;;
8652;SDS011;4364;52.426;9.424;2023-07-31T10:46:27;4.17;;;3.00;;
8652;SDS011;4364;52.426;9.424;2023-07-31T10:49:01;3.67;;;2.93;;
8652;SDS011;4364;52.426;9.424;2023-07-31T10:51:32;4.10;;;2.60;;
8652;SDS011;4364;52.426;9.424;2023-07-31T10:54:13;3.77;;;2.70;;
8652;SDS011;4364;52.426;9.424;2023-07-31T10:56:44;5.30;;;2.90;;
8652;SDS011;4364;52.426;9.424;2023-07-31T10:59:13;4.10;;;3.30;;
8652;SDS011;4364;52.426;9.424;2023-07-31T11:01:53;4.60;;;3.00;;
8652;SDS011;4364;52.426;9.424;2023-07-31T11:04:26;4.77;;;3.10;;
8652;SDS011;4364;52.426;9.424;2023-07-31T11:07:00;3.73;;;2.97;;
8652;SDS011;4364;52.426;9.424;2023-07-31T11:09:29;2.97;;;2.50;;
8652;SDS011;4364;52.426;9.424;2023-07-31T11:11:59;3.00;;;2.70;;
8652;SDS011;4364;52.426;9.424;2023-07-31T11:14:26;3.67;;;2.77;;
8652;SDS011;4364;52.426;9.424;2023-07-31T11:16:53;3.77;;;2.60;;
8652;SDS011;4364;52.426;9.424;2023-07-31T11:19:23;4.10;;;2.70;;
8652;SDS011;4364;52.426;9.424;2023-07-31T11:21:50;3.73;;;2.40;;
8652;SDS011;4364;52.426;9.424;2023-07-31T11:24:18;3.13;;;2.40;;
8652;SDS011;4364;52.426;9.424;2023-07-31T11:26:49;3.03;;;2.30;;
8652;SDS011;4364;52.426;9.424;2023-07-31T11:29:18;3.60;;;2.50;;
8652;SDS011;4364;52.426;9.424;2023-07-31T11:31:47;3.63;;;2.20;;
8652;SDS011;4364;52.426;9.424;2023-07-31T11:34:15;2.37;;;2.17;;
8652;SDS011;4364;52.426;9.424;2023-07-31T11:36:52;3.27;;;2.23;;
8652;SDS011;4364;52.426;9.424;2023-07-31T11:39:19;2.40;;;1.90;;
8652;SDS011;4364;52.426;9.424;2023-07-31T11:41:46;2.83;;;2.23;;
8652;SDS011;4364;52.426;9.424;2023-07-31T11:44:12;3.10;;;2.00;;
8652;SDS011;4364;52.426;9.424;2023-07-31T11:46:53;3.33;;;2.20;;
8652;SDS011;4364;52.426;9.424;2023-07-31T11:49:23;2.43;;;1.90;;
8652;SDS011;4364;52.426;9.424;2023-07-31T11:51:49;3.33;;;2.07;;
8652;SDS011;4364;52.426;9.424;2023-07-31T11:54:16;2.27;;;1.90;;
8652;SDS011;4364;52.426;9.424;2023-07-31T11:56:43;2.60;;;1.80;;
8652;SDS011;4364;52.426;9.424;2023-07-31T11:59:10;2.53;;;1.47;;
8652;SDS011;4364;52.426;9.424;2023-07-31T12:01:39;3.13;;;1.80;;
8652;SDS011;4364;52.426;9.424;2023-07-31T12:04:06;1.90;;;1.70;;
8652;SDS011;4364;52.426;9.424;2023-07-31T12:06:34;2.43;;;1.60;;
8652;SDS011;4364;52.426;9.424;2023-07-31T12:09:02;2.30;;;1.63;;
8652;SDS011;4364;52.426;9.424;2023-07-31T12:11:29;2.37;;;1.63;;
8652;SDS011;4364;52.426;9.424;2023-07-31T12:13:56;1.60;;;1.50;;
8652;SDS011;4364;52.426;9.424;2023-07-31T12:16:25;3.47;;;1.70;;
8652;SDS011;4364;52.426;9.424;2023-07-31T12:18:53;2.97;;;2.00;;
8652;SDS011;4364;52.426;9.424;2023-07-31T12:21:19;2.10;;;1.90;;
8652;SDS011;4364;52.426;9.424;2023-07-31T12:23:46;2.30;;;2.10;;
8652;SDS011;4364;52.426;9.424;2023-07-31T12:26:13;2.07;;;1.70;;
8652;SDS011;4364;52.426;9.424;2023-07-31T12:28:42;1.43;;;1.33;;
8652;SDS011;4364;52.426;9.424;2023-07-31T12:31:16;2.57;;;1.87;;
8652;SDS011;4364;52.426;9.424;2023-07-31T12:33:49;3.40;;;1.60;;
8652;SDS011;4364;52.426;9.424;2023-07-31T12:36:18;2.40;;;1.43;;
8652;SDS011;4364;52.426;9.424;2023-07-31T12:38:47;1.80;;;1.40;;
8652;SDS011;4364;52.426;9.424;2023-07-31T12:41:13;2.80;;;1.80;;
8652;SDS011;4364;52.426;9.424;2023-07-31T12:43:41;5.27;;;2.10;;
8652;SDS011;4364;52.426;9.424;2023-07-31T12:46:08;4.77;;;1.90;;
8652;SDS011;4364;52.426;9.424;2023-07-31T12:48:35;4.60;;;2.00;;
8652;SDS011;4364;52.426;9.424;2023-07-31T12:51:03;3.00;;;1.60;;
8652;SDS011;4364;52.426;9.424;2023-07-31T12:53:30;2.03;;;1.63;;
8652;SDS011;4364;52.426;9.424;2023-07-31T12:55:57;5.50;;;2.00;;
8652;SDS011;4364;52.426;9.424;2023-07-31T12:58:23;2.80;;;1.93;;
8652;SDS011;4364;52.426;9.424;2023-07-31T13:00:51;1.80;;;1.60;;
8652;SDS011;4364;52.426;9.424;2023-07-31T13:03:18;2.33;;;1.50;;
8652;SDS011;4364;52.426;9.424;2023-07-31T13:05:44;1.40;;;1.30;;
8652;SDS011;4364;52.426;9.424;2023-07-31T13:08:11;3.57;;;1.60;;
8652;SDS011;4364;52.426;9.424;2023-07-31T13:10:38;1.90;;;1.50;;
8652;SDS011;4364;52.426;9.424;2023-07-31T13:13:05;1.47;;;1.37;;
8652;SDS011;4364;52.426;9.424;2023-07-31T13:15:31;2.60;;;1.50;;
8652;SDS011;4364;52.426;9.424;2023-07-31T13:17:58;2.37;;;1.70;;
8652;SDS011;4364;52.426;9.424;2023-07-31T13:20:26;2.10;;;1.63;;
8652;SDS011;4364;52.426;9.424;2023-07-31T13:22:52;2.10;;;1.70;;
8652;SDS011;4364;52.426;9.424;2023-07-31T13:25:19;2.07;;;1.40;;
8652;SDS011;4364;52.426;9.424;2023-07-31T13:27:45;2.07;;;1.40;;
8652;SDS011;4364;52.426;9.424;2023-07-31T13:30:12;3.07;;;1.57;;
8652;SDS011;4364;52.426;9.424;2023-07-31T13:32:39;3.07;;;1.50;;
8652;SDS011;4364;52.426;9.424;2023-07-31T13:35:06;2.33;;;1.30;;
8652;SDS011;4364;52.426;9.424;2023-07-31T13:37:33;1.93;;;1.27;;
8652;SDS011;4364;52.426;9.424;2023-07-31T13:40:01;3.13;;;1.60;;
8652;SDS011;4364;52.426;9.424;2023-07-31T13:42:30;2.67;;;1.37;;
8652;SDS011;4364;52.426;9.424;2023-07-31T13:44:57;1.97;;;1.33;;
8652;SDS011;4364;52.426;9.424;2023-07-31T13:47:24;2.27;;;1.30;;
8652;SDS011;4364;52.426;9.424;2023-07-31T13:49:50;5.50;;;2.07;;
8652;SDS011;4364;52.426;9.424;2023-07-31T13:52:17;1.90;;;1.50;;
8652;SDS011;4364;52.426;9.424;2023-07-31T13:54:44;3.87;;;1.80;;
8652;SDS011;4364;52.426;9.424;2023-07-31T13:57:11;4.87;;;2.13;;
8652;SDS011;4364;52.426;9.424;2023-07-31T13:59:37;2.80;;;1.83;;
8652;SDS011;4364;52.426;9.424;2023-07-31T14:02:04;2.37;;;1.80;;
8652;SDS011;4364;52.426;9.424;2023-07-31T14:04:31;2.50;;;1.87;;
8652;SDS011;4364;52.426;9.424;2023-07-31T14:06:58;2.00;;;1.80;;
8652;SDS011;4364;52.426;9.424;2023-07-31T14:09:24;2.53;;;2.33;;
8652;SDS011;4364;52.426;9.424;2023-07-31T14:11:52;2.87;;;2.60;;
8652;SDS011;4364;52.426;9.424;2023-07-31T14:14:18;3.27;;;2.83;;
8652;SDS011;4364;52.426;9.424;2023-07-31T14:16:45;2.40;;;2.20;;
8652;SDS011;4364;52.426;9.424;2023-07-31T14:19:12;2.97;;;2.47;;
8652;SDS011;4364;52.426;9.424;2023-07-31T14:21:39;4.13;;;3.40;;
8652;SDS011;4364;52.426;9.424;2023-07-31T14:24:05;3.80;;;3.50;;
8652;SDS011;4364;52.426;9.424;2023-07-31T14:26:32;4.60;;;4.10;;
8652;SDS011;4364;52.426;9.424;2023-07-31T14:28:58;4.97;;;4.33;;
8652;SDS011;4364;52.426;9.424;2023-07-31T14:31:26;6.00;;;4.40;;
8652;SDS011;4364;52.426;9.424;2023-07-31T14:33:53;6.50;;;4.60;;
8652;SDS011;4364;52.426;9.424;2023-07-31T14:36:23;5.70;;;5.10;;
8652;SDS011;4364;52.426;9.424;2023-07-31T14:38:49;6.27;;;5.37;;
8652;SDS011;4364;52.426;9.424;2023-07-31T14:41:16;5.40;;;4.90;;
8652;SDS011;4364;52.426;9.424;2023-07-31T14:43:43;5.20;;;4.70;;
8652;SDS011;4364;52.426;9.424;2023-07-31T14:46:10;5.57;;;5.00;;
8652;SDS011;4364;52.426;9.424;2023-07-31T14:48:37;6.97;;;4.97;;
8652;SDS011;4364;52.426;9.424;2023-07-31T14:51:03;5.27;;;4.70;;
8652;SDS011;4364;52.426;9.424;2023-07-31T14:53:30;5.27;;;4.77;;
8652;SDS011;4364;52.426;9.424;2023-07-31T14:55:56;6.10;;;5.37;;
8652;SDS011;4364;52.426;9.424;2023-07-31T14:58:23;5.43;;;4.93;;
8652;SDS011;4364;52.426;9.424;2023-07-31T15:00:50;6.47;;;4.97;;
8652;SDS011;4364;52.426;9.424;2023-07-31T15:03:16;6.37;;;5.03;;
8652;SDS011;4364;52.426;9.424;2023-07-31T15:05:43;6.60;;;4.90;;
8652;SDS011;4364;52.426;9.424;2023-07-31T15:08:10;6.47;;;4.87;;
8652;SDS011;4364;52.426;9.424;2023-07-31T15:10:36;8.83;;;4.57;;
8652;SDS011;4364;52.426;9.424;2023-07-31T15:13:03;6.63;;;4.83;;
8652;SDS011;4364;52.426;9.424;2023-07-31T15:15:29;5.13;;;4.30;;
8652;SDS011;4364;52.426;9.424;2023-07-31T15:17:57;4.70;;;4.20;;
8652;SDS011;4364;52.426;9.424;2023-07-31T15:20:23;5.10;;;4.60;;